createdAt,value
2023-01-17T00:01:49.349Z,0.70
2023-01-17T00:04:34.961Z,0.40
2023-01-17T00:07:20.255Z,0.40
2023-01-17T00:09:53.012Z,0.50
2023-01-17T00:12:21.634Z,0.60
2023-01-17T00:14:49.133Z,0.90
2023-01-17T00:17:16.181Z,0.50
2023-01-17T00:20:01.381Z,0.47
2023-01-17T00:22:49.590Z,0.80
2023-01-17T00:25:38.055Z,0.45
2023-01-17T00:28:05.809Z,0.32
2023-01-17T00:30:33.360Z,1.75
2023-01-17T00:33:00.594Z,1.45
2023-01-17T00:35:30.168Z,0.88
2023-01-17T00:38:17.778Z,0.85
2023-01-17T00:40:46.157Z,1.45
2023-01-17T00:43:34.620Z,1.73
2023-01-17T00:46:20.723Z,0.80
2023-01-17T00:49:06.352Z,0.82
2023-01-17T00:51:53.081Z,1.67
2023-01-17T00:54:39.028Z,2.47
2023-01-17T00:57:14.211Z,2.15
2023-01-17T01:00:03.179Z,1.33
2023-01-17T01:02:34.216Z,0.65
2023-01-17T01:05:20.226Z,1.58
2023-01-17T01:08:05.693Z,1.05
2023-01-17T01:10:52.062Z,0.60
2023-01-17T01:13:40.908Z,1.17
2023-01-17T01:16:26.854Z,1.60
2023-01-17T01:19:12.110Z,1.02
2023-01-17T01:21:57.723Z,3.58
2023-01-17T01:24:43.024Z,1.25
2023-01-17T01:27:28.507Z,0.95
2023-01-17T01:30:13.889Z,1.27
2023-01-17T01:32:59.790Z,1.20
2023-01-17T01:35:26.846Z,1.15
2023-01-17T01:37:53.819Z,0.80
2023-01-17T01:40:21.172Z,1.48
2023-01-17T01:42:52.806Z,0.50
2023-01-17T01:45:23.473Z,0.50
2023-01-17T01:47:53.960Z,1.58
2023-01-17T01:50:22.131Z,1.52
2023-01-17T01:52:51.482Z,0.57
2023-01-17T01:55:25.054Z,0.70
2023-01-17T01:57:56.546Z,1.00
2023-01-17T02:00:27.510Z,0.80
2023-01-17T02:02:56.405Z,0.85
2023-01-17T02:05:25.704Z,0.90
2023-01-17T02:07:58.696Z,1.90
2023-01-17T02:10:25.735Z,1.40
2023-01-17T02:12:54.483Z,1.23
2023-01-17T02:15:29.858Z,1.52
2023-01-17T02:18:18.963Z,2.28
2023-01-17T02:21:05.751Z,1.63
2023-01-17T02:23:35.512Z,1.48
2023-01-17T02:26:19.823Z,2.58
2023-01-17T02:29:07.044Z,1.35
2023-01-17T02:31:47.047Z,0.80
2023-01-17T02:34:24.280Z,1.85
2023-01-17T02:37:00.562Z,1.33
2023-01-17T02:39:34.625Z,0.77
2023-01-17T02:42:09.684Z,1.63
2023-01-17T02:44:44.227Z,1.13
2023-01-17T02:47:26.089Z,1.05
2023-01-17T02:49:58.355Z,1.10
2023-01-17T02:52:42.436Z,1.08
2023-01-17T02:55:34.247Z,0.80
2023-01-17T02:58:19.518Z,0.70
2023-01-17T03:01:08.016Z,1.75
2023-01-17T03:03:44.004Z,1.30
2023-01-17T03:06:22.991Z,2.05
2023-01-17T03:08:51.865Z,1.10
2023-01-17T03:11:19.165Z,1.52
2023-01-17T03:13:46.367Z,1.25
2023-01-17T03:16:21.190Z,1.98
2023-01-17T03:18:49.294Z,1.70
2023-01-17T03:21:16.571Z,1.27
2023-01-17T03:23:44.201Z,1.25
2023-01-17T03:26:14.709Z,1.73
2023-01-17T03:28:41.757Z,1.40
2023-01-17T03:31:09.387Z,1.17
2023-01-17T03:33:36.451Z,2.08
2023-01-17T03:36:03.599Z,1.00
2023-01-17T03:38:32.243Z,2.15
2023-01-17T03:40:59.298Z,2.55
2023-01-17T03:43:26.271Z,1.95
2023-01-17T03:46:01.447Z,1.85
2023-01-17T03:48:28.447Z,1.83
2023-01-17T03:50:55.801Z,1.17
2023-01-17T03:53:22.736Z,1.90
2023-01-17T03:55:49.780Z,1.42
2023-01-17T03:58:16.776Z,1.55
2023-01-17T04:00:44.016Z,1.00
2023-01-17T04:05:51.769Z,1.70
2023-01-17T04:08:18.711Z,2.03
2023-01-17T04:10:45.652Z,1.77
2023-01-17T04:13:13.730Z,2.83
2023-01-17T04:15:40.802Z,4.53
2023-01-17T04:18:07.888Z,2.55
2023-01-17T04:20:39.885Z,2.67
2023-01-17T04:23:07.636Z,2.45
2023-01-17T04:25:34.775Z,3.08
2023-01-17T04:28:03.739Z,0.90
2023-01-17T04:30:32.122Z,2.05
2023-01-17T04:33:00.667Z,1.52
2023-01-17T04:35:33.586Z,1.33
2023-01-17T04:38:00.947Z,0.98
2023-01-17T04:40:29.810Z,1.08
2023-01-17T04:43:01.748Z,0.85
2023-01-17T04:45:28.674Z,1.50
2023-01-17T04:47:55.582Z,0.90
2023-01-17T04:50:22.630Z,1.10
2023-01-17T04:52:49.592Z,0.63
2023-01-17T04:55:16.698Z,2.35
2023-01-17T04:57:43.568Z,1.23
2023-01-17T05:00:11.762Z,1.25
2023-01-17T05:02:38.742Z,0.93
2023-01-17T05:05:12.759Z,1.10
2023-01-17T05:07:45.750Z,1.48
2023-01-17T05:12:59.438Z,1.40
2023-01-17T05:15:27.414Z,1.52
2023-01-17T05:17:55.002Z,1.80
2023-01-17T05:20:23.469Z,2.50
2023-01-17T05:22:57.444Z,1.02
2023-01-17T05:25:29.504Z,0.85
2023-01-17T05:28:00.170Z,0.77
2023-01-17T05:30:29.050Z,0.70
2023-01-17T05:32:57.601Z,1.13
2023-01-17T05:35:33.698Z,1.13
2023-01-17T05:38:01.293Z,1.90
2023-01-17T05:40:31.160Z,1.17
2023-01-17T05:43:00.029Z,1.38
2023-01-17T05:45:28.804Z,0.60
2023-01-17T05:47:56.846Z,1.60
2023-01-17T05:50:27.267Z,1.58
2023-01-17T05:52:59.747Z,1.10
2023-01-17T05:55:28.414Z,0.60
2023-01-17T05:57:56.018Z,1.08
2023-01-17T06:00:24.196Z,0.68
2023-01-17T06:02:54.523Z,1.52
2023-01-17T06:05:22.904Z,0.70
2023-01-17T06:07:50.399Z,1.40
2023-01-17T06:10:19.293Z,1.23
2023-01-17T06:12:46.973Z,2.35
2023-01-17T06:15:16.273Z,1.77
2023-01-17T06:17:43.256Z,1.73
2023-01-17T06:20:12.301Z,2.47
2023-01-17T06:22:39.290Z,0.85
2023-01-17T06:25:07.467Z,1.00
2023-01-17T06:27:34.439Z,0.82
2023-01-17T06:30:01.453Z,2.22
2023-01-17T06:32:28.343Z,1.20
2023-01-17T06:34:55.192Z,4.45
2023-01-17T06:37:22.382Z,3.00
2023-01-17T06:39:49.716Z,1.73
2023-01-17T06:42:16.608Z,1.30
2023-01-17T06:44:43.464Z,3.10
2023-01-17T06:47:10.545Z,1.23
2023-01-17T06:49:37.672Z,1.40
2023-01-17T06:52:04.878Z,2.38
2023-01-17T06:54:31.806Z,0.60
2023-01-17T06:56:58.682Z,1.05
2023-01-17T07:02:04.281Z,1.08
2023-01-17T07:04:31.363Z,2.25
2023-01-17T07:06:58.296Z,1.15
2023-01-17T07:09:25.255Z,2.15
2023-01-17T07:11:59.597Z,1.38
2023-01-17T07:14:26.643Z,1.17
2023-01-17T07:16:53.780Z,1.30
2023-01-17T07:19:21.014Z,1.08
2023-01-17T07:21:52.309Z,1.45
2023-01-17T07:24:19.873Z,2.28
2023-01-17T07:26:51.233Z,0.93
2023-01-17T07:29:18.826Z,1.92
2023-01-17T07:31:45.937Z,1.10
2023-01-17T07:34:12.787Z,1.10
2023-01-17T07:36:39.788Z,1.08
2023-01-17T07:39:06.766Z,2.42
2023-01-17T07:41:41.056Z,1.10
2023-01-17T07:44:10.839Z,2.75
2023-01-17T07:46:37.779Z,1.30
2023-01-17T07:49:04.749Z,1.05
2023-01-17T07:51:31.957Z,1.10
2023-01-17T07:53:58.907Z,1.30
2023-01-17T07:56:25.887Z,1.40
2023-01-17T07:58:54.513Z,1.40
2023-01-17T08:04:00.234Z,1.35
2023-01-17T08:06:29.282Z,1.73
2023-01-17T08:08:57.167Z,1.08
2023-01-17T08:11:24.201Z,1.00
2023-01-17T08:13:57.415Z,1.55
2023-01-17T08:16:25.109Z,1.23
2023-01-17T08:18:53.117Z,1.42
2023-01-17T08:21:20.940Z,1.45
2023-01-17T08:23:51.532Z,1.70
2023-01-17T08:26:22.256Z,2.05
2023-01-17T08:28:57.598Z,1.30
2023-01-17T08:31:24.905Z,1.92
2023-01-17T08:33:52.043Z,1.42
2023-01-17T08:36:19.278Z,1.75
2023-01-17T08:38:46.234Z,1.10
2023-01-17T08:41:13.371Z,1.75
2023-01-17T08:43:40.408Z,2.03
2023-01-17T08:46:07.383Z,1.10
2023-01-17T08:48:34.421Z,1.23
2023-01-17T08:51:02.692Z,1.45
2023-01-17T08:53:29.992Z,1.38
2023-01-17T08:56:02.411Z,1.77
2023-01-17T08:58:31.014Z,0.80
2023-01-17T09:01:06.217Z,1.38
2023-01-17T09:03:34.872Z,1.92
2023-01-17T09:06:06.976Z,4.47
2023-01-17T09:08:34.932Z,1.55
2023-01-17T09:11:11.105Z,0.85
2023-01-17T09:13:38.461Z,1.13
2023-01-17T09:16:06.230Z,1.63
2023-01-17T09:18:34.919Z,1.60
2023-01-17T09:21:13.550Z,0.90
2023-01-17T09:23:41.097Z,1.40
2023-01-17T09:26:19.910Z,1.13
2023-01-17T09:28:46.871Z,1.38
2023-01-17T09:31:16.556Z,1.38
2023-01-17T09:33:44.329Z,1.00
2023-01-17T09:36:11.460Z,1.65
2023-01-17T09:38:38.618Z,1.90
2023-01-17T09:41:18.580Z,1.10
2023-01-17T09:43:49.769Z,1.95
2023-01-17T09:46:23.833Z,1.48
2023-01-17T09:51:26.007Z,2.25
2023-01-17T09:53:56.643Z,1.40
2023-01-17T09:56:29.623Z,0.57
2023-01-17T09:59:11.267Z,0.73
2023-01-17T10:01:45.709Z,1.60
2023-01-17T10:04:33.906Z,0.63
2023-01-17T10:07:11.586Z,1.10
2023-01-17T10:23:04.097Z,0.70
2023-01-17T10:25:43.890Z,1.10
2023-01-17T10:28:19.544Z,0.40
2023-01-17T10:30:49.903Z,0.65
2023-01-17T10:33:21.296Z,0.70
2023-01-17T10:35:59.395Z,1.10
2023-01-17T10:38:35.973Z,0.77
2023-01-17T10:41:14.361Z,1.05
2023-01-17T10:44:01.847Z,1.25
2023-01-17T10:46:45.161Z,0.90
2023-01-17T10:49:18.959Z,1.23
2023-01-17T10:52:00.449Z,0.50
2023-01-17T10:54:53.123Z,0.40
2023-01-17T10:57:25.399Z,0.73
2023-01-17T10:59:57.826Z,0.50
2023-01-17T11:02:26.826Z,0.43
2023-01-17T11:04:58.715Z,0.50
2023-01-17T11:07:29.073Z,0.57
2023-01-17T11:09:59.469Z,0.38
2023-01-17T11:12:29.915Z,0.93
2023-01-17T11:17:43.842Z,0.30
2023-01-17T11:20:13.893Z,0.35
2023-01-17T11:22:46.016Z,0.70
2023-01-17T11:25:22.447Z,0.80
2023-01-17T11:28:06.012Z,1.00
2023-01-17T11:30:33.293Z,1.25
2023-01-17T11:33:04.278Z,1.35
2023-01-17T11:35:36.951Z,0.75
2023-01-17T11:38:21.396Z,0.70
2023-01-17T11:40:49.729Z,1.25
2023-01-17T11:43:21.302Z,1.20
2023-01-17T11:46:18.724Z,1.40
2023-01-17T11:48:53.438Z,0.77
2023-01-17T11:51:34.875Z,1.65
2023-01-17T11:54:22.008Z,1.20
2023-01-17T11:56:50.671Z,1.60
2023-01-17T11:59:37.628Z,1.58
2023-01-17T12:02:24.803Z,1.75
2023-01-17T12:05:01.688Z,0.95
2023-01-17T12:07:49.810Z,1.20
2023-01-17T12:10:31.030Z,1.02
2023-01-17T12:13:44.426Z,1.33
2023-01-17T12:16:47.071Z,1.42
2023-01-17T12:19:45.681Z,0.93
2023-01-17T12:22:40.571Z,1.00
2023-01-17T12:25:18.926Z,1.10
2023-01-17T12:28:11.433Z,0.68
2023-01-17T12:31:15.622Z,1.52
2023-01-17T12:33:56.919Z,2.00
2023-01-17T12:36:33.201Z,1.25
2023-01-17T12:39:06.011Z,1.05
2023-01-17T12:41:56.419Z,3.60
2023-01-17T12:44:39.224Z,1.30
2023-01-17T12:47:07.277Z,0.95
2023-01-17T12:49:52.494Z,1.27
2023-01-17T12:52:42.938Z,1.58
2023-01-17T12:55:19.328Z,1.23
2023-01-17T12:57:56.014Z,0.93
2023-01-17T13:00:26.819Z,1.05
2023-01-17T13:03:23.955Z,1.10
2023-01-17T13:05:52.448Z,1.35
2023-01-17T13:08:48.299Z,2.08
2023-01-17T13:11:27.796Z,0.80
2023-01-17T13:13:57.527Z,1.00
2023-01-17T13:16:34.053Z,0.80
2023-01-17T13:19:20.491Z,1.23
2023-01-17T13:21:49.025Z,1.10
2023-01-17T13:24:26.605Z,0.65
2023-01-17T13:27:02.472Z,1.50
2023-01-17T13:29:35.289Z,0.50
2023-01-17T13:32:32.151Z,0.65
2023-01-17T13:35:10.885Z,1.33
2023-01-17T13:37:59.760Z,0.82
2023-01-17T13:41:05.550Z,0.95
2023-01-17T13:43:39.426Z,0.70
2023-01-17T13:46:07.236Z,1.05
2023-01-17T13:48:40.887Z,1.77
2023-01-17T13:51:10.086Z,0.60
2023-01-17T13:53:37.139Z,0.80
2023-01-17T13:56:19.219Z,1.00
2023-01-17T13:58:50.225Z,1.58
2023-01-17T14:01:23.402Z,0.88
2023-01-17T14:03:50.508Z,1.45
2023-01-17T14:06:37.722Z,1.63
2023-01-17T14:09:16.394Z,1.35
2023-01-17T14:12:06.659Z,0.57
2023-01-17T14:14:45.448Z,0.60
2023-01-17T14:17:42.058Z,1.50
2023-01-17T14:20:09.125Z,1.75
2023-01-17T14:22:39.178Z,0.80
2023-01-17T14:25:12.250Z,0.90
2023-01-17T14:28:02.553Z,1.02
2023-01-17T14:30:32.672Z,0.70
2023-01-17T14:33:02.255Z,0.95
2023-01-17T14:35:52.609Z,1.67
2023-01-17T14:38:23.369Z,1.08
2023-01-17T14:41:16.304Z,1.85
2023-01-17T14:43:45.299Z,0.70
2023-01-17T14:46:26.790Z,1.55
2023-01-17T14:49:02.230Z,1.10
2023-01-17T14:51:29.588Z,0.90
2023-01-17T14:54:07.830Z,1.30
2023-01-17T14:56:34.844Z,0.90
2023-01-17T14:59:21.174Z,0.60
2023-01-17T15:02:07.506Z,1.92
2023-01-17T15:04:39.660Z,0.82
2023-01-17T15:07:11.486Z,1.95
2023-01-17T15:09:38.602Z,0.57
2023-01-17T15:12:14.527Z,0.85
2023-01-17T15:14:45.807Z,0.90
2023-01-17T15:17:24.908Z,1.02
2023-01-17T15:19:57.306Z,2.20
2023-01-17T15:22:26.366Z,1.25
2023-01-17T15:24:54.519Z,0.80
2023-01-17T15:27:21.816Z,0.57
2023-01-17T15:29:49.343Z,1.83
2023-01-17T15:32:28.029Z,1.08
2023-01-17T15:34:55.136Z,1.65
2023-01-17T15:37:22.371Z,0.70
2023-01-17T15:39:49.500Z,0.70
2023-01-17T15:42:24.361Z,0.75
2023-01-17T15:44:56.960Z,1.10
2023-01-17T15:47:33.278Z,0.95
2023-01-17T15:50:02.621Z,1.02
2023-01-17T15:52:29.744Z,1.00
2023-01-17T15:55:12.575Z,0.80
2023-01-17T15:57:40.019Z,1.55
2023-01-17T16:00:12.497Z,1.67
2023-01-17T16:02:56.143Z,2.10
2023-01-17T16:05:31.065Z,1.08
2023-01-17T16:08:38.651Z,1.58
2023-01-17T16:11:07.372Z,1.10
2023-01-17T16:13:38.649Z,1.75
2023-01-17T18:09:10.053Z,2.63
2023-01-17T18:11:38.806Z,3.28
2023-01-17T18:14:07.090Z,2.28
2023-01-17T18:16:36.929Z,3.15
2023-01-17T18:19:04.863Z,4.03
2023-01-17T18:21:37.924Z,2.50
2023-01-17T18:24:10.552Z,2.80
2023-01-17T18:26:38.882Z,2.00
2023-01-17T18:29:07.724Z,2.58
2023-01-17T18:31:34.730Z,3.35
2023-01-17T18:34:06.759Z,3.78
2023-01-17T18:36:37.034Z,3.55
2023-01-17T18:39:36.199Z,3.05
2023-01-17T18:42:03.191Z,3.55
2023-01-17T18:44:30.286Z,2.78
2023-01-17T18:47:04.573Z,2.88
2023-01-17T18:49:33.568Z,4.35
2023-01-17T18:52:00.787Z,3.80
2023-01-17T18:54:28.316Z,2.83
2023-01-17T18:56:56.088Z,2.55
2023-01-17T18:59:23.561Z,3.85
2023-01-17T19:01:50.767Z,3.22
2023-01-17T19:04:19.067Z,4.50
2023-01-17T19:06:48.035Z,3.88
2023-01-17T19:09:16.130Z,3.90
2023-01-17T19:11:44.978Z,3.35
2023-01-17T19:14:12.817Z,3.63
2023-01-17T19:16:46.140Z,3.67
2023-01-17T19:19:15.494Z,4.10
2023-01-17T19:21:43.006Z,3.05
2023-01-17T19:24:13.256Z,3.00
2023-01-17T19:26:40.796Z,3.50
2023-01-17T19:29:07.864Z,3.15
2023-01-17T19:31:42.469Z,3.42
2023-01-17T19:34:10.423Z,4.28
2023-01-17T19:36:38.250Z,3.60
2023-01-17T19:39:07.660Z,2.38
2023-01-17T19:41:36.927Z,2.60
2023-01-17T19:44:06.491Z,3.42
2023-01-17T19:46:34.406Z,3.65
2023-01-17T19:49:02.228Z,2.58
2023-01-17T19:51:29.302Z,2.47
2023-01-17T19:53:59.173Z,4.30
2023-01-17T19:56:26.800Z,3.28
2023-01-17T19:58:54.012Z,3.92
2023-01-17T20:01:24.731Z,3.95
2023-01-17T20:03:52.505Z,3.50
2023-01-17T20:06:21.927Z,2.85
2023-01-17T20:08:48.965Z,2.72
2023-01-17T20:11:19.628Z,3.72
2023-01-17T20:13:48.369Z,2.97
2023-01-17T20:16:18.330Z,4.28
2023-01-17T20:18:45.789Z,3.03
2023-01-17T20:21:17.375Z,3.15
2023-01-17T20:23:47.060Z,3.78
2023-01-17T20:26:17.802Z,3.42
2023-01-17T20:28:46.959Z,2.80
2023-01-17T20:31:20.289Z,2.75
2023-01-17T20:33:50.401Z,3.72
2023-01-17T20:36:19.257Z,2.78
2023-01-17T20:38:48.736Z,3.15
2023-01-17T20:41:22.872Z,2.72
2023-01-17T20:46:19.301Z,2.92
2023-01-17T20:48:55.790Z,2.83
2023-01-17T20:51:24.943Z,3.13
2023-01-17T20:53:55.965Z,4.35
2023-01-17T20:56:26.679Z,3.97
2023-01-17T20:58:54.653Z,5.10
2023-01-17T21:01:24.764Z,4.70
2023-01-17T22:08:47.097Z,3.38
2023-01-17T22:11:19.990Z,3.55
2023-01-17T22:13:47.404Z,4.03
2023-01-17T22:16:17.647Z,5.03
2023-01-17T22:18:45.481Z,3.60
2023-01-17T22:21:15.169Z,3.92
2023-01-17T22:23:54.759Z,3.90
2023-01-17T22:26:24.217Z,3.67
2023-01-17T22:28:51.273Z,5.63
2023-01-17T22:31:27.011Z,3.47
2023-01-17T22:34:02.812Z,3.70
2023-01-17T22:36:34.056Z,3.60
2023-01-17T22:39:01.403Z,3.00
2023-01-17T22:41:30.230Z,3.10
2023-01-17T22:44:02.045Z,3.20
2023-01-17T22:46:30.934Z,2.90
2023-01-17T22:48:59.024Z,2.90
2023-01-17T22:51:28.554Z,3.20
2023-01-17T22:53:58.166Z,3.58
2023-01-17T22:56:31.294Z,3.38
2023-01-17T22:59:00.814Z,3.78
2023-01-17T23:01:30.373Z,2.63
2023-01-17T23:04:01.938Z,3.70
2023-01-17T23:06:37.121Z,3.10
2023-01-17T23:09:07.586Z,3.05
2023-01-17T23:11:47.124Z,3.47
2023-01-17T23:14:29.424Z,4.53
2023-01-17T23:17:23.080Z,3.17
2023-01-17T23:19:52.480Z,3.33
2023-01-17T23:22:24.537Z,3.60
2023-01-17T23:24:59.091Z,4.53
2023-01-17T23:27:49.516Z,4.28
2023-01-17T23:30:25.011Z,3.35
2023-01-17T23:33:00.243Z,3.90
2023-01-17T23:35:30.155Z,4.85
2023-01-17T23:38:16.042Z,4.80
2023-01-17T23:40:43.649Z,5.88
2023-01-17T23:43:23.482Z,5.03
2023-01-17T23:45:54.823Z,6.03
2023-01-17T23:48:25.710Z,4.50
2023-01-17T23:51:01.272Z,4.65
2023-01-17T23:53:28.707Z,5.35
2023-01-17T23:55:57.163Z,4.57
2023-01-17T23:58:26.874Z,5.40
